Time;durP1;ratioP1;P1;durP2;ratioP2;P2;SDS_P1;SDS_P2;PMS_P1;PMS_P2;Temp;Humidity;BMP_temperature;BMP_pressure;BME280_temperature;BME280_humidity;BME280_pressure;Samples;Min_cycle;Max_cycle;Signal;HPM_P1;HPM_P2
2022/03/20 00:00:44;;;;;;;5.93;4.89;;;;;;;-2.15;45.12;103319.42;463898;113;922851;-70
2022/03/20 00:01:47;;;;;;;5.00;4.49;;;;;;;-2.16;45.21;103323.89;465480;113;922649;-68
2022/03/20 00:02:51;;;;;;;5.13;4.02;;;;;;;-2.16;45.09;103325.70;464503;113;930575;-70
2022/03/20 00:03:55;;;;;;;4.39;3.88;;;;;;;-2.19;45.02;103326.68;464649;113;922904;-68
2022/03/20 00:05:01;;;;;;;5.53;4.51;;;;;;;-2.19;44.97;103326.68;464281;113;930508;-70
2022/03/20 00:06:04;;;;;;;4.47;3.73;;;;;;;-2.21;44.90;103325.03;465465;113;922561;-69
2022/03/20 00:07:11;;;;;;;5.14;4.64;;;;;;;-2.24;44.90;103327.81;465778;113;922588;-68
2022/03/20 00:08:13;;;;;;;5.00;4.51;;;;;;;-2.26;45.01;103327.03;465071;113;931064;-68
2022/03/20 00:09:16;;;;;;;5.01;4.31;;;;;;;-2.25;45.15;103326.06;463590;113;922654;-69
2022/03/20 00:10:20;;;;;;;5.17;4.60;;;;;;;-2.23;45.18;103329.55;465265;113;922554;-67
2022/03/20 00:11:23;;;;;;;4.86;4.34;;;;;;;-2.22;45.15;103334.84;463858;113;931673;-69
2022/03/20 00:12:27;;;;;;;4.87;4.35;;;;;;;-2.20;45.14;103335.63;458378;115;930601;-67
2022/03/20 00:13:30;;;;;;;4.76;4.32;;;;;;;-2.19;45.00;103321.34;458773;113;930628;-69
2022/03/20 00:14:34;;;;;;;5.25;3.94;;;;;;;-2.20;44.95;103332.95;468126;113;922579;-68
2022/03/20 00:15:40;;;;;;;5.84;4.36;;;;;;;-2.21;45.00;103328.57;465164;113;922635;-71
2022/03/20 00:16:44;;;;;;;4.82;4.32;;;;;;;-2.21;45.06;103333.92;463190;112;930506;-69
2022/03/20 00:17:48;;;;;;;4.56;4.16;;;;;;;-2.20;45.10;103332.08;466074;113;922806;-67
2022/03/20 00:18:51;;;;;;;6.18;4.95;;;;;;;-2.19;45.13;103329.35;465988;113;930633;-67
2022/03/20 00:19:56;;;;;;;5.33;4.53;;;;;;;-2.17;45.10;103334.64;464550;113;922964;-69
2022/03/20 00:21:00;;;;;;;5.25;4.54;;;;;;;-2.16;45.09;103333.72;464681;113;922561;-68
2022/03/20 00:22:05;;;;;;;7.46;4.12;;;;;;;-2.15;44.99;103332.78;462347;113;930636;-68
2022/03/20 00:23:10;;;;;;;5.86;4.16;;;;;;;-2.14;44.98;103332.70;463521;112;922971;-71
2022/03/20 00:24:14;;;;;;;7.96;4.61;;;;;;;-2.13;44.99;103331.77;466166;112;930740;-68
2022/03/20 00:25:17;;;;;;;6.37;4.92;;;;;;;-2.11;44.91;103329.91;466660;113;923046;-68
2022/03/20 00:26:21;;;;;;;5.58;4.95;;;;;;;-2.09;44.84;103328.98;466097;112;922994;-69
2022/03/20 00:27:24;;;;;;;4.61;4.14;;;;;;;-2.09;44.78;103318.28;464714;113;922758;-68
2022/03/20 00:28:28;;;;;;;5.12;4.29;;;;;;;-2.08;44.77;103322.67;465693;113;922526;-68
2022/03/20 00:29:31;;;;;;;5.35;4.85;;;;;;;-2.08;44.77;103322.67;467839;113;922579;-68
2022/03/20 00:30:35;;;;;;;5.75;5.04;;;;;;;-2.07;44.76;103317.27;462753;113;930539;-67
2022/03/20 00:31:39;;;;;;;5.12;4.16;;;;;;;-2.06;44.76;103310.99;464621;113;922745;-68
2022/03/20 00:32:42;;;;;;;7.21;5.01;;;;;;;-2.03;44.81;103309.97;464722;113;923093;-70
2022/03/20 00:33:45;;;;;;;4.85;4.29;;;;;;;-2.02;44.80;103317.06;466359;112;922682;-68
2022/03/20 00:34:49;;;;;;;4.98;4.11;;;;;;;-2.00;44.86;103315.20;464772;113;922943;-67
2022/03/20 00:35:53;;;;;;;5.26;4.25;;;;;;;-1.98;44.78;103313.31;465474;113;923511;-68
2022/03/20 00:36:56;;;;;;;6.21;4.43;;;;;;;-1.96;44.67;103311.45;466034;113;922685;-69
2022/03/20 00:38:00;;;;;;;4.89;4.30;;;;;;;-1.96;44.62;103314.13;463221;112;930616;-66
2022/03/20 00:39:04;;;;;;;4.92;4.42;;;;;;;-1.95;44.49;103316.73;463064;113;930536;-69
2022/03/20 00:40:08;;;;;;;4.87;4.29;;;;;;;-1.95;44.45;103313.20;463290;113;922598;-69
2022/03/20 00:41:11;;;;;;;6.25;4.24;;;;;;;-1.94;44.52;103312.27;465159;113;922559;-69
2022/03/20 00:42:15;;;;;;;7.74;4.84;;;;;;;-1.94;44.47;103312.27;466305;113;923190;-67
2022/03/20 00:43:18;;;;;;;5.17;4.67;;;;;;;-1.92;44.56;103307.70;468036;113;922926;-68
2022/03/20 00:44:21;;;;;;;4.47;4.08;;;;;;;-1.92;44.46;103310.37;463458;113;923143;-71
2022/03/20 00:45:26;;;;;;;7.06;4.46;;;;;;;-1.91;44.43;103302.29;462905;113;923020;-69
2022/03/20 00:46:29;;;;;;;4.90;4.28;;;;;;;-1.91;44.29;103304.09;465859;113;922672;-69
2022/03/20 00:47:33;;;;;;;6.47;4.38;;;;;;;-1.91;44.15;103304.09;464168;113;922545;-68
2022/03/20 00:48:36;;;;;;;6.12;4.12;;;;;;;-1.91;44.24;103298.75;463581;113;922991;-69
2022/03/20 00:49:41;;;;;;;5.64;4.51;;;;;;;-1.91;44.17;103299.62;465963;113;923040;-70
2022/03/20 00:50:44;;;;;;;5.56;4.82;;;;;;;-1.91;44.17;103298.75;466243;112;922515;-68
2022/03/20 00:51:48;;;;;;;5.37;4.43;;;;;;;-1.90;44.15;103297.81;466092;113;930942;-69
2022/03/20 00:52:51;;;;;;;5.31;3.81;;;;;;;-1.90;44.11;103303.16;464730;113;922824;-70
2022/03/20 00:53:55;;;;;;;4.84;4.22;;;;;;;-1.91;44.08;103298.75;468240;113;922661;-69
2022/03/20 00:54:59;;;;;;;4.51;4.10;;;;;;;-1.91;44.03;103296.07;465145;113;922596;-70
2022/03/20 00:56:02;;;;;;;4.49;4.09;;;;;;;-1.92;43.98;103297.87;465086;113;922960;-71
2022/03/20 00:57:05;;;;;;;4.63;4.16;;;;;;;-1.92;43.95;103292.53;466266;112;922783;-70
2022/03/20 00:58:11;;;;;;;5.24;4.41;;;;;;;-1.93;43.85;103296.12;464934;113;930657;-68
2022/03/20 00:59:14;;;;;;;5.36;4.29;;;;;;;-1.92;43.84;103294.33;466560;113;922512;-71
2022/03/20 01:00:18;;;;;;;6.88;4.81;;;;;;;-1.95;43.78;103298.02;464300;112;922586;-69
2022/03/20 01:01:21;;;;;;;5.21;4.38;;;;;;;-1.98;43.69;103290.13;463896;112;922463;-69
2022/03/20 01:02:25;;;;;;;4.93;4.02;;;;;;;-1.99;43.75;103296.44;466050;113;923059;-70
2022/03/20 01:03:29;;;;;;;5.11;4.56;;;;;;;-1.99;43.72;103301.78;464530;113;922435;-70
2022/03/20 01:04:33;;;;;;;4.68;4.21;;;;;;;-2.02;43.65;103304.56;464032;113;922513;-72
2022/03/20 01:05:37;;;;;;;4.53;4.01;;;;;;;-2.05;43.55;103290.48;465250;113;922272;-69
2022/03/20 01:06:40;;;;;;;6.08;3.83;;;;;;;-2.08;43.56;103295.94;467764;113;930482;-70
2022/03/20 01:07:44;;;;;;;4.78;4.39;;;;;;;-2.12;43.51;103300.56;467907;112;922565;-70
2022/03/20 01:08:47;;;;;;;4.05;3.53;;;;;;;-2.16;43.57;103297.17;465756;113;922558;-70
2022/03/20 01:09:50;;;;;;;5.08;4.05;;;;;;;-2.21;43.61;103299.17;464297;112;922656;-69
2022/03/20 01:10:54;;;;;;;4.86;4.22;;;;;;;-2.22;43.66;103294.76;465611;113;922473;-68
2022/03/20 01:11:58;;;;;;;5.03;4.52;;;;;;;-2.25;43.75;103294.88;468160;113;930579;-69
2022/03/20 01:13:01;;;;;;;4.81;3.72;;;;;;;-2.25;43.83;103299.34;465720;113;922528;-70
2022/03/20 01:14:06;;;;;;;5.83;3.87;;;;;;;-2.25;43.92;103294.00;465242;113;922694;-69
2022/03/20 01:15:11;;;;;;;5.16;3.81;;;;;;;-2.25;43.99;103294.88;463350;113;922517;-69
2022/03/20 01:16:15;;;;;;;4.93;3.93;;;;;;;-2.22;44.01;103293.88;463435;114;922972;-69
2022/03/20 01:17:18;;;;;;;3.49;3.19;;;;;;;-2.22;43.97;103292.09;463759;114;922441;-69
2022/03/20 01:18:23;;;;;;;4.94;3.42;;;;;;;-2.21;43.87;103293.83;463743;114;930761;-68
2022/03/20 01:19:27;;;;;;;3.80;3.22;;;;;;;-2.21;43.80;103291.16;463674;114;922637;-69
2022/03/20 01:20:31;;;;;;;4.45;3.59;;;;;;;-2.21;43.74;103279.59;463491;114;922553;-68
2022/03/20 01:21:34;;;;;;;4.30;3.90;;;;;;;-2.23;43.76;103289.47;463483;114;922923;-68
2022/03/20 01:22:39;;;;;;;4.17;3.79;;;;;;;-2.24;43.67;103287.72;463442;114;925578;-70
2022/03/20 01:23:42;;;;;;;4.33;3.49;;;;;;;-2.25;43.67;103286.85;463328;114;922557;-69
2022/03/20 01:24:46;;;;;;;4.47;3.19;;;;;;;-2.26;43.62;103282.44;463368;114;930288;-69
2022/03/20 01:25:50;;;;;;;4.06;3.22;;;;;;;-2.26;43.60;103284.27;463392;114;922571;-69
2022/03/20 01:26:54;;;;;;;4.40;3.57;;;;;;;-2.28;43.64;103288.80;463257;114;922485;-69
2022/03/20 01:27:58;;;;;;;4.61;3.51;;;;;;;-2.29;43.62;103285.26;463311;114;930434;-68
2022/03/20 01:29:02;;;;;;;4.56;3.60;;;;;;;-2.30;43.60;103288.86;463335;114;930511;-68
2022/03/20 01:30:07;;;;;;;4.38;3.51;;;;;;;-2.31;43.49;103284.44;463286;114;922761;-67
2022/03/20 01:31:10;;;;;;;4.03;3.40;;;;;;;-2.32;43.36;103285.41;463268;114;930498;-67
2022/03/20 01:32:14;;;;;;;4.64;4.00;;;;;;;-2.35;43.38;103282.84;463415;114;930666;-68
2022/03/20 01:33:18;;;;;;;3.84;3.36;;;;;;;-2.40;43.24;103276.83;463210;114;922872;-68
2022/03/20 01:34:22;;;;;;;4.33;3.72;;;;;;;-2.43;43.28;103284.13;463257;114;930561;-71
2022/03/20 01:35:25;;;;;;;5.49;4.09;;;;;;;-2.47;43.33;103272.67;463379;114;930533;-70
2022/03/20 01:36:30;;;;;;;5.96;4.30;;;;;;;-2.49;43.27;103279.03;463366;114;930651;-68
2022/03/20 01:37:33;;;;;;;4.10;3.59;;;;;;;-2.52;43.24;103277.34;463376;114;930969;-68
2022/03/20 01:38:36;;;;;;;3.95;3.23;;;;;;;-2.56;43.22;103279.29;463365;114;922854;-67
2022/03/20 01:39:40;;;;;;;3.59;3.29;;;;;;;-2.61;43.20;103283.95;463351;114;931000;-67
2022/03/20 01:40:43;;;;;;;3.49;3.04;;;;;;;-2.66;43.15;103285.95;463404;114;930531;-68
2022/03/20 01:41:47;;;;;;;3.62;3.12;;;;;;;-2.71;43.23;103284.41;463332;114;930568;-69
2022/03/20 01:42:51;;;;;;;4.74;3.38;;;;;;;-2.75;43.21;103293.45;463373;114;922450;-67
2022/03/20 01:44:00;;;;;;;4.91;3.85;;;;;;;-2.78;43.21;103285.58;463411;114;922437;-68
2022/03/20 01:45:18;;;;;;;3.32;3.02;;;;;;;-2.82;43.18;103287.52;463323;114;922644;-69
2022/03/20 01:46:22;;;;;;;3.38;3.07;;;;;;;-2.84;43.31;103284.03;463250;114;923295;-67
2022/03/20 01:47:25;;;;;;;3.22;2.92;;;;;;;-2.85;43.33;103289.42;463444;114;922489;-66
2022/03/20 01:48:29;;;;;;;4.89;3.36;;;;;;;-2.85;43.32;103286.75;463439;114;922870;-68
2022/03/20 01:49:32;;;;;;;4.00;3.19;;;;;;;-2.87;43.50;103284.17;463434;114;922635;-68
2022/03/20 01:50:36;;;;;;;4.64;2.98;;;;;;;-2.85;43.58;103282.28;463348;114;931038;-67
2022/03/20 01:53:03;;;;;;;3.06;2.78;;;;;;;-2.82;43.53;103294.66;463266;114;922609;-70
2022/03/20 01:54:09;;;;;;;4.92;2.96;;;;;;;-2.82;43.56;103297.33;463404;114;922430;-69
2022/03/20 01:55:14;;;;;;;3.61;3.27;;;;;;;-2.83;43.45;103296.45;463219;114;930502;-70
2022/03/20 01:56:19;;;;;;;4.61;3.11;;;;;;;-2.86;43.31;103298.36;463262;114;922776;-69
2022/03/20 01:57:22;;;;;;;3.57;3.26;;;;;;;-2.88;43.44;103292.23;463373;114;922927;-69
2022/03/20 01:58:25;;;;;;;3.36;3.06;;;;;;;-2.90;43.48;103294.95;463090;114;930787;-71
2022/03/20 01:59:29;;;;;;;3.91;3.29;;;;;;;-2.90;43.57;103297.63;463287;114;930516;-67
2022/03/20 02:00:32;;;;;;;4.92;4.21;;;;;;;-2.88;43.61;103292.23;463381;114;923314;-68
2022/03/20 02:01:36;;;;;;;4.53;3.69;;;;;;;-2.87;43.73;103292.18;463320;114;930624;-68
2022/03/20 02:02:40;;;;;;;3.94;3.42;;;;;;;-2.84;43.75;103293.84;463300;114;930431;-68
2022/03/20 02:03:43;;;;;;;5.04;4.54;;;;;;;-2.81;43.90;103293.73;463432;114;922538;-67
2022/03/20 02:04:47;;;;;;;5.51;4.29;;;;;;;-2.79;43.93;103297.19;463377;114;922569;-68
2022/03/20 02:05:51;;;;;;;5.71;4.86;;;;;;;-2.76;43.99;103294.41;463383;114;922947;-67
2022/03/20 02:06:55;;;;;;;6.16;4.80;;;;;;;-2.74;44.03;103300.53;463276;114;922527;-68
2022/03/20 02:07:59;;;;;;;5.00;4.44;;;;;;;-2.73;44.06;103295.14;462783;114;925290;-68
2022/03/20 02:09:04;;;;;;;5.29;4.62;;;;;;;-2.69;44.09;103294.08;463398;114;922518;-68
2022/03/20 02:10:09;;;;;;;5.28;4.58;;;;;;;-2.66;44.09;103295.77;463232;114;923195;-68
2022/03/20 02:11:13;;;;;;;5.34;4.37;;;;;;;-2.65;44.01;103289.50;463347;114;922547;-67
2022/03/20 02:12:17;;;;;;;4.96;4.16;;;;;;;-2.62;44.22;103289.35;463157;114;922599;-68
2022/03/20 02:13:24;;;;;;;4.94;3.84;;;;;;;-2.62;44.22;103289.35;463357;114;922630;-66
2022/03/20 02:14:28;;;;;;;5.20;3.74;;;;;;;-2.63;44.08;103287.61;463266;114;922910;-67
2022/03/20 02:15:32;;;;;;;4.75;4.09;;;;;;;-2.61;44.03;103289.30;468525;112;923190;-67
2022/03/20 02:16:37;;;;;;;4.29;3.39;;;;;;;-2.59;44.02;103289.24;464529;112;922996;-69
2022/03/20 02:17:43;;;;;;;4.02;3.42;;;;;;;-2.57;43.96;103290.03;461495;112;930560;-69
2022/03/20 02:18:48;;;;;;;3.85;3.15;;;;;;;-2.56;43.92;103295.31;466368;112;922708;-69
2022/03/20 02:19:52;;;;;;;4.29;3.22;;;;;;;-2.56;43.87;103294.45;466973;113;922914;-67
2022/03/20 02:20:57;;;;;;;3.93;3.59;;;;;;;-2.55;43.84;103294.39;465360;112;930618;-68
2022/03/20 02:22:00;;;;;;;3.98;3.56;;;;;;;-2.54;43.85;103300.60;465973;113;922574;-67
2022/03/20 02:23:03;;;;;;;4.90;3.66;;;;;;;-2.52;43.75;103301.39;467879;113;922985;-69
2022/03/20 02:24:29;;;;;;;3.76;3.36;;;;;;;-2.53;43.74;103295.17;463611;113;930568;-68
2022/03/20 02:25:33;;;;;;;3.57;3.24;;;;;;;-2.53;43.71;103294.30;463392;112;922550;-69
2022/03/20 02:26:37;;;;;;;4.48;3.74;;;;;;;-2.52;43.65;103298.72;465408;113;923072;-68
2022/03/20 02:27:41;;;;;;;4.17;3.19;;;;;;;-2.52;43.68;103296.05;465071;112;923098;-68
2022/03/20 02:28:44;;;;;;;4.52;3.94;;;;;;;-2.52;43.72;103299.59;466076;113;922969;-68
2022/03/20 02:29:51;;;;;;;6.19;4.22;;;;;;;-2.51;43.80;103297.78;466792;113;930571;-67
2022/03/20 02:30:55;;;;;;;3.81;3.41;;;;;;;-2.50;43.76;103301.33;464716;113;923110;-68
2022/03/20 02:31:59;;;;;;;5.81;3.59;;;;;;;-2.49;43.74;103305.75;464979;113;922868;-71
2022/03/20 02:33:03;;;;;;;4.68;3.71;;;;;;;-2.50;43.77;103301.33;465641;113;930659;-68
2022/03/20 02:34:07;;;;;;;4.04;3.67;;;;;;;-2.50;43.74;103304.00;464542;113;923091;-68
2022/03/20 02:35:13;;;;;;;4.15;3.78;;;;;;;-2.50;43.73;103299.53;463729;113;922906;-67
2022/03/20 02:36:18;;;;;;;6.72;5.77;;;;;;;-2.51;43.75;103303.12;464411;112;923002;-68
2022/03/20 02:37:23;;;;;;;5.23;4.73;;;;;;;-2.51;43.71;103303.12;463940;113;922508;-68
2022/03/20 02:38:26;;;;;;;6.48;4.34;;;;;;;-2.49;43.72;103297.73;464284;113;922692;-70
2022/03/20 02:39:31;;;;;;;6.14;4.17;;;;;;;-2.49;43.72;103303.08;464464;113;922909;-69
2022/03/20 02:40:35;;;;;;;3.99;3.64;;;;;;;-2.50;43.64;103304.87;465799;113;927249;-67
2022/03/20 02:41:39;;;;;;;4.59;4.13;;;;;;;-2.49;43.61;103301.28;467750;113;922932;-68
2022/03/20 02:42:44;;;;;;;5.19;3.94;;;;;;;-2.50;43.59;103299.53;462455;113;930662;-69
2022/03/20 02:43:51;;;;;;;4.01;3.70;;;;;;;-2.50;43.54;103298.66;463628;113;922668;-66
2022/03/20 02:45:03;;;;;;;3.75;3.31;;;;;;;-2.51;43.50;103303.12;463621;113;922606;-68
2022/03/20 02:46:07;;;;;;;6.23;3.98;;;;;;;-2.52;43.52;103304.93;465079;113;922578;-68
2022/03/20 02:47:12;;;;;;;3.98;3.57;;;;;;;-2.52;43.51;103302.26;462668;113;922615;-68
2022/03/20 02:48:16;;;;;;;4.64;3.83;;;;;;;-2.50;43.48;103304.00;466629;113;922961;-69
2022/03/20 02:49:20;;;;;;;4.05;3.63;;;;;;;-2.51;43.45;103313.81;463823;113;930506;-68
2022/03/20 02:50:27;;;;;;;3.74;3.38;;;;;;;-2.52;43.44;103309.41;469624;113;922776;-67
2022/03/20 02:51:30;;;;;;;4.19;3.80;;;;;;;-2.52;43.41;103312.94;465437;113;922637;-68
2022/03/20 02:52:49;;;;;;;4.64;3.83;;;;;;;-2.52;43.42;103312.94;466455;112;922634;-66
2022/03/20 02:53:53;;;;;;;5.98;2.97;;;;;;;-2.52;43.43;103312.07;466028;113;922497;-69
2022/03/20 02:55:02;;;;;;;5.68;3.72;;;;;;;-2.52;43.38;103314.74;465208;113;922500;-66
2022/03/20 02:56:06;;;;;;;4.30;3.35;;;;;;;-2.52;43.47;103312.07;465361;113;922663;-68
2022/03/20 02:57:10;;;;;;;5.38;3.68;;;;;;;-2.52;43.47;103317.41;464922;113;922503;-67
2022/03/20 02:58:16;;;;;;;5.08;3.15;;;;;;;-2.52;43.48;103310.27;464986;113;922643;-67
2022/03/20 02:59:19;;;;;;;5.23;4.16;;;;;;;-2.50;43.37;103312.89;465573;113;923091;-68
2022/03/20 03:00:26;;;;;;;6.16;4.67;;;;;;;-2.52;43.44;103310.27;464893;113;922509;-67
2022/03/20 03:01:30;;;;;;;6.93;4.04;;;;;;;-2.50;43.31;103320.91;466446;113;923125;-69
2022/03/20 03:02:36;;;;;;;5.92;4.29;;;;;;;-2.51;43.30;103321.83;463784;113;922728;-67
2022/03/20 03:03:45;;;;;;;5.42;4.15;;;;;;;-2.50;43.30;103320.03;465640;113;922624;-68
2022/03/20 03:04:45;;;;;;;4.81;4.33;;;;;;;-2.52;43.26;103318.28;466360;113;922988;-71
2022/03/20 03:05:48;;;;;;;5.84;4.70;;;;;;;-2.51;43.47;103313.81;465998;113;922490;-68
2022/03/20 03:06:52;;;;;;;4.94;4.14;;;;;;;-2.51;43.47;103313.81;469531;112;930493;-68
2022/03/20 03:10:59;;;;;;;6.53;5.37;;;;;;;-2.53;43.22;103316.54;463190;113;922671;-69
2022/03/20 03:12:05;;;;;;;7.97;6.63;;;;;;;-2.53;43.21;103323.68;466047;113;922588;-70
2022/03/20 03:13:10;;;;;;;9.06;6.62;;;;;;;-2.53;43.22;103321.02;464025;113;922539;-67
2022/03/20 03:15:35;;;;;;;10.07;6.77;;;;;;;-2.56;43.21;103319.36;466956;113;922606;-70
2022/03/20 03:16:39;;;;;;;8.64;6.90;;;;;;;-2.56;43.26;103321.16;466884;113;922487;-68
2022/03/20 03:17:42;;;;;;;10.03;7.33;;;;;;;-2.56;43.24;103321.16;463996;113;923093;-70
2022/03/20 03:18:47;;;;;;;9.84;7.66;;;;;;;-2.57;43.18;103325.63;465159;113;930592;-67
2022/03/20 03:19:54;;;;;;;10.84;8.00;;;;;;;-2.56;43.13;103321.16;464698;113;922624;-67
2022/03/20 03:20:56;;;;;;;15.84;9.24;;;;;;;-2.57;43.08;103319.41;464923;113;922634;-69
2022/03/20 03:22:01;;;;;;;12.55;8.63;;;;;;;-2.58;43.16;103326.55;465450;113;922675;-69
2022/03/20 03:23:05;;;;;;;11.62;8.65;;;;;;;-2.57;43.08;103319.41;465339;113;922547;-67
2022/03/20 03:24:09;;;;;;;10.63;8.93;;;;;;;-2.57;43.00;103328.30;463495;113;922651;-69
2022/03/20 03:25:12;;;;;;;10.23;7.91;;;;;;;-2.56;43.03;103331.84;465398;112;922823;-67
2022/03/20 03:26:16;;;;;;;11.35;8.62;;;;;;;-2.57;42.93;103333.63;468299;112;922645;-69
2022/03/20 03:27:20;;;;;;;14.28;9.54;;;;;;;-2.56;42.88;103331.84;467448;113;922516;-68
2022/03/20 03:28:32;;;;;;;13.32;8.97;;;;;;;-2.56;42.88;103337.18;467199;113;922980;-69
2022/03/20 03:29:29;;;;;;;10.27;7.77;;;;;;;-2.57;42.86;103325.63;464580;112;922889;-68
2022/03/20 03:30:35;;;;;;;11.44;8.73;;;;;;;-2.57;42.89;103335.44;465063;113;922604;-67
2022/03/20 03:31:38;;;;;;;10.58;8.07;;;;;;;-2.56;42.86;103321.16;467860;113;922627;-68
2022/03/20 03:32:44;;;;;;;8.61;7.18;;;;;;;-2.56;42.80;103326.50;463641;113;923137;-65
2022/03/20 03:36:33;;;;;;;12.18;8.17;;;;;;;-2.59;42.72;103327.47;467664;113;922632;-67
2022/03/20 03:37:36;;;;;;;9.84;7.85;;;;;;;-2.61;42.62;103320.48;467982;113;922492;-68
2022/03/20 03:38:40;;;;;;;9.89;8.02;;;;;;;-2.63;42.68;103327.67;467965;113;922763;-68
2022/03/20 03:39:44;;;;;;;12.46;8.13;;;;;;;-2.66;42.73;103328.69;466236;113;922720;-68
2022/03/20 03:40:48;;;;;;;12.49;8.71;;;;;;;-2.67;42.66;103328.73;465444;113;930629;-67
2022/03/20 03:41:51;;;;;;;10.39;8.69;;;;;;;-2.71;42.86;103319.99;465299;113;922563;-68
2022/03/20 03:42:55;;;;;;;9.64;8.00;;;;;;;-2.72;43.08;103325.39;469307;113;926316;-67
2022/03/20 03:43:58;;;;;;;9.98;8.65;;;;;;;-2.74;43.24;103330.78;463806;113;923024;-67
2022/03/20 03:45:03;;;;;;;12.04;8.86;;;;;;;-2.75;43.28;103320.15;467567;113;922549;-68
2022/03/20 03:46:08;;;;;;;12.49;8.48;;;;;;;-2.75;43.32;103328.16;465208;113;922506;-69
2022/03/20 03:47:11;;;;;;;12.62;9.23;;;;;;;-2.76;43.39;103329.99;467190;112;922907;-68
2022/03/20 03:48:16;;;;;;;10.04;8.69;;;;;;;-2.75;43.54;103321.02;460694;114;922624;-69
2022/03/20 03:49:20;;;;;;;10.92;8.17;;;;;;;-2.74;43.61;103321.89;458301;113;923018;-68
2022/03/20 03:50:23;;;;;;;10.74;8.22;;;;;;;-2.73;43.74;103320.97;464310;112;922580;-66
2022/03/20 03:51:27;;;;;;;9.76;8.75;;;;;;;-2.72;43.79;103322.72;466854;113;922588;-66
2022/03/20 03:52:30;;;;;;;10.87;8.51;;;;;;;-2.71;43.80;103327.13;466412;113;922656;-68
2022/03/20 03:53:33;;;;;;;9.63;8.63;;;;;;;-2.71;43.83;103321.79;466386;113;922618;-67
2022/03/20 03:54:37;;;;;;;10.86;9.48;;;;;;;-2.71;43.86;103322.66;463293;113;922485;-67
2022/03/20 03:55:43;;;;;;;11.79;10.57;;;;;;;-2.71;43.88;103321.79;462973;113;922909;-68
2022/03/20 03:56:46;;;;;;;13.76;11.84;;;;;;;-2.71;43.90;103319.99;468597;113;922553;-67
2022/03/20 03:57:51;;;;;;;15.27;11.41;;;;;;;-2.69;43.90;103323.45;464768;113;922606;-67
2022/03/20 03:58:54;;;;;;;12.73;10.81;;;;;;;-2.69;43.97;103318.11;464943;113;922596;-68
2022/03/20 03:59:58;;;;;;;11.21;9.81;;;;;;;-2.67;44.00;103318.05;463746;113;923243;-68
2022/03/20 04:01:01;;;;;;;10.14;9.06;;;;;;;-2.67;43.98;103324.27;463985;112;922993;-68
2022/03/20 04:02:05;;;;;;;10.93;9.60;;;;;;;-2.66;43.88;103325.14;465183;113;922549;-67
2022/03/20 04:03:09;;;;;;;11.33;9.76;;;;;;;-2.65;43.84;103330.42;466073;113;922685;-68
2022/03/20 04:04:12;;;;;;;10.33;8.74;;;;;;;-2.63;43.82;103323.20;465738;112;930486;-68
2022/03/20 04:05:17;;;;;;;14.41;9.00;;;;;;;-2.62;43.89;103327.62;464771;113;923143;-69
2022/03/20 04:06:20;;;;;;;9.36;7.93;;;;;;;-2.60;43.80;103327.56;466733;112;922659;-67
2022/03/20 04:07:24;;;;;;;7.90;7.04;;;;;;;-2.59;43.73;103327.47;464016;113;922528;-69
2022/03/20 04:08:28;;;;;;;8.83;7.58;;;;;;;-2.58;43.70;103325.67;465914;113;923510;-66
2022/03/20 04:09:31;;;;;;;6.67;5.71;;;;;;;-2.59;43.70;103324.80;465616;113;923053;-67
2022/03/20 04:10:36;;;;;;;6.69;5.81;;;;;;;-2.58;43.54;103328.34;467335;113;922518;-68
2022/03/20 04:11:39;;;;;;;7.36;6.64;;;;;;;-2.57;43.52;103332.77;464637;113;923214;-68
2022/03/20 04:12:43;;;;;;;7.38;5.99;;;;;;;-2.56;43.38;103331.84;467402;113;930659;-66
2022/03/20 04:13:47;;;;;;;6.94;5.56;;;;;;;-2.56;43.32;103326.50;466594;113;922494;-67
2022/03/20 04:14:50;;;;;;;10.85;6.40;;;;;;;-2.56;43.29;103330.04;467612;113;931070;-68
2022/03/20 04:15:54;;;;;;;6.82;6.03;;;;;;;-2.52;43.22;103341.45;465331;113;930545;-70
2022/03/20 04:16:57;;;;;;;6.84;6.11;;;;;;;-2.52;43.22;103341.45;464411;113;930481;-68
2022/03/20 04:18:01;;;;;;;7.59;6.67;;;;;;;-2.52;43.28;103334.31;465123;113;930517;-69
2022/03/20 04:19:04;;;;;;;6.43;5.21;;;;;;;-2.49;43.29;103332.46;463575;113;930553;-67
2022/03/20 04:20:10;;;;;;;7.29;5.56;;;;;;;-2.49;43.12;103338.67;466739;112;930525;-68
2022/03/20 04:21:14;;;;;;;6.18;5.25;;;;;;;-2.48;43.11;103343.05;464445;113;922682;-68
2022/03/20 04:22:18;;;;;;;6.34;5.04;;;;;;;-2.47;43.00;103344.80;463113;113;922410;-69
2022/03/20 04:24:44;;;;;;;6.52;5.88;;;;;;;-2.52;42.79;103346.80;464215;113;923006;-68
2022/03/20 04:25:47;;;;;;;6.46;5.68;;;;;;;-2.57;42.75;103340.77;465457;113;922532;-68
2022/03/20 04:26:51;;;;;;;8.09;6.42;;;;;;;-2.61;42.82;103353.39;463504;113;923180;-69
2022/03/20 04:27:56;;;;;;;6.91;6.19;;;;;;;-2.65;42.94;103350.92;465959;113;930989;-69
2022/03/20 04:29:00;;;;;;;6.07;4.91;;;;;;;-2.65;43.04;103348.25;469518;113;922947;-67
2022/03/20 04:30:04;;;;;;;6.49;5.55;;;;;;;-2.67;43.16;103347.43;464846;112;922523;-68
2022/03/20 04:31:08;;;;;;;6.24;5.51;;;;;;;-2.66;43.15;103351.84;466602;113;922539;-67
2022/03/20 04:32:16;;;;;;;6.04;5.44;;;;;;;-2.65;43.18;103338.44;464975;113;922535;-69
2022/03/20 04:33:16;;;;;;;6.36;5.10;;;;;;;-2.63;43.16;103339.23;466385;113;930625;-67
2022/03/20 04:34:22;;;;;;;6.24;5.64;;;;;;;-2.62;43.17;103340.97;465735;113;922469;-69
2022/03/20 04:35:25;;;;;;;8.76;5.46;;;;;;;-2.61;43.10;103344.52;466717;112;930538;-69
2022/03/20 04:36:31;;;;;;;5.82;4.93;;;;;;;-2.59;43.06;103351.52;465766;113;922654;-69
2022/03/20 04:37:34;;;;;;;6.78;5.39;;;;;;;-2.58;43.04;103360.40;463702;113;922530;-69
2022/03/20 04:38:38;;;;;;;5.56;4.59;;;;;;;-2.56;43.10;103353.20;465465;113;924112;-66
2022/03/20 04:39:41;;;;;;;5.59;4.58;;;;;;;-2.53;43.15;103339.71;464041;113;922568;-69
2022/03/20 04:40:45;;;;;;;5.94;4.70;;;;;;;-2.50;43.07;103344.07;465678;113;922552;-68
2022/03/20 04:41:48;;;;;;;5.62;4.45;;;;;;;-2.48;42.90;103342.22;466406;112;922561;-69
2022/03/20 04:42:51;;;;;;;5.04;4.53;;;;;;;-2.49;42.66;103345.81;466947;112;930592;-69
2022/03/20 04:43:55;;;;;;;5.97;4.83;;;;;;;-2.51;42.59;103337.86;464784;113;922824;-69
2022/03/20 04:44:58;;;;;;;5.44;4.57;;;;;;;-2.51;42.59;103337.86;463988;113;930709;-69
2022/03/20 04:46:02;;;;;;;6.06;4.92;;;;;;;-2.50;42.73;103333.38;463129;113;930649;-69
2022/03/20 04:58:28;;;;;;;5.29;4.74;;;;;;;-2.48;42.64;103335.05;465488;113;922826;-68
2022/03/20 04:59:07;;;;;;;9.32;7.28;;;;;;;-2.17;41.99;103345.33;468649;113;922600;-67
2022/03/20 05:00:11;;;;;;;12.38;8.56;;;;;;;-2.15;41.93;103344.31;463914;113;922507;-69
2022/03/20 05:01:15;;;;;;;11.55;7.94;;;;;;;-2.13;41.90;103353.16;465470;113;922524;-67
2022/03/20 05:02:18;;;;;;;11.69;8.18;;;;;;;-2.09;41.94;103353.04;466680;112;922561;-68
2022/03/20 05:03:23;;;;;;;11.31;8.24;;;;;;;-2.05;41.93;103349.29;463666;113;922512;-69
2022/03/20 05:04:26;;;;;;;10.55;7.87;;;;;;;-2.01;41.87;103345.54;465285;113;930593;-65
2022/03/20 05:05:30;;;;;;;11.10;6.79;;;;;;;-1.97;41.76;103347.14;467643;113;930516;-68
2022/03/20 05:06:33;;;;;;;7.87;6.34;;;;;;;-1.94;41.68;103347.02;468114;113;930604;-69
2022/03/20 05:07:37;;;;;;;5.95;4.63;;;;;;;-1.93;41.54;103341.59;465420;113;930486;-70
2022/03/20 05:08:41;;;;;;;7.22;4.58;;;;;;;-1.89;41.47;103340.53;466277;113;922945;-68
2022/03/20 05:13:50;;;;;;;4.50;4.06;;;;;;;-1.80;41.05;103340.12;465494;113;922560;-69
2022/03/20 05:14:59;;;;;;;4.32;3.63;;;;;;;-1.77;41.01;103339.13;464698;113;922552;-67
2022/03/20 05:16:04;;;;;;;6.34;3.98;;;;;;;-1.74;41.01;103339.86;464435;113;922614;-68
2022/03/20 05:17:09;;;;;;;4.71;4.27;;;;;;;-1.72;41.03;103337.99;469140;112;923068;-67
2022/03/20 05:18:13;;;;;;;5.61;4.04;;;;;;;-1.69;40.98;103334.30;468081;112;922482;-69
2022/03/20 05:19:16;;;;;;;5.31;4.21;;;;;;;-1.66;40.93;103334.17;468218;112;922723;-70
2022/03/20 05:20:22;;;;;;;5.78;4.56;;;;;;;-1.61;40.93;103333.96;464965;112;922694;-68